Time;durP1;ratioP1;P1;durP2;ratioP2;P2;SDS_P1;SDS_P2;PMS_P1;PMS_P2;Temp;Humidity;BMP_temperature;BMP_pressure;BME280_temperature;BME280_humidity;BME280_pressure;Samples;Min_cycle;Max_cycle;Signal;HPM_P1;HPM_P2
2023/02/27 00:00:52;;;;;;;13.70;3.38;;;-3.20;99.90;;;-5.08;98.94;102213.09;5009519;28;20079;-70
2023/02/27 00:03:18;;;;;;;14.32;3.83;;;-3.20;99.90;;;-5.08;98.87;102226.81;4991256;28;20550;-71
2023/02/27 00:05:44;;;;;;;11.38;3.17;;;-3.20;99.90;;;-5.08;98.75;102231.09;5010192;28;20037;-71
2023/02/27 00:08:10;;;;;;;16.40;3.58;;;-3.20;99.90;;;-5.10;98.35;102231.00;5010688;28;20252;-70
2023/02/27 00:10:35;;;;;;;12.63;3.47;;;-3.20;99.90;;;-5.11;98.70;102230.97;4999328;28;20038;-71
2023/02/27 00:13:01;;;;;;;10.20;3.22;;;-3.30;99.90;;;-5.12;99.40;102239.47;5008660;28;20100;-70
2023/02/27 00:15:29;;;;;;;10.88;3.47;;;-3.30;99.90;;;-5.13;99.05;102240.31;4993304;28;20095;-70
2023/02/27 00:17:55;;;;;;;12.00;3.40;;;-3.20;99.90;;;-5.13;98.68;102248.00;5010196;28;20049;-70
2023/02/27 00:20:21;;;;;;;15.05;3.10;;;-3.30;99.90;;;-5.14;98.55;102247.09;5007939;28;20405;-71
2023/02/27 00:22:47;;;;;;;9.38;2.80;;;-3.30;99.90;;;-5.17;98.89;102242.72;5000876;28;20034;-71
2023/02/27 00:25:13;;;;;;;12.55;3.15;;;-3.00;99.90;;;-5.16;99.66;102248.75;5008206;28;20033;-71
2023/02/27 00:27:40;;;;;;;9.05;2.75;;;-3.30;99.90;;;-5.18;98.70;102251.25;5011524;28;20026;-71
2023/02/27 00:30:09;;;;;;;19.25;2.88;;;-3.30;99.90;;;-5.17;98.97;102255.56;5005609;28;20516;-70
2023/02/27 00:32:35;;;;;;;11.15;2.70;;;-3.30;99.90;;;-5.18;100.00;102253.81;5008553;28;20084;-70
2023/02/27 00:35:06;;;;;;;8.68;2.40;;;-3.30;99.90;;;-5.17;99.14;102262.41;5011361;28;20564;-71
2023/02/27 00:37:33;;;;;;;8.63;2.80;;;-3.30;99.90;;;-5.17;100.00;102255.56;5010799;28;20026;-70
2023/02/27 00:40:00;;;;;;;8.30;2.25;;;-3.30;99.90;;;-5.16;100.00;102264.16;5006799;28;20042;-71
2023/02/27 00:42:27;;;;;;;10.02;2.63;;;-3.30;99.90;;;-5.15;100.00;102264.22;4983777;28;20044;-70
2023/02/27 00:44:53;;;;;;;8.70;2.53;;;-3.30;99.90;;;-5.11;100.00;102261.78;4996148;28;20180;-71
2023/02/27 00:47:19;;;;;;;13.60;2.65;;;-3.20;99.90;;;-5.09;100.00;102262.75;4983315;28;20026;-71
2023/02/27 00:49:45;;;;;;;13.27;3.13;;;-3.20;99.90;;;-5.07;100.00;102269.69;4990994;28;20114;-70
2023/02/27 00:52:11;;;;;;;7.70;2.58;;;-3.20;99.90;;;-5.07;100.00;102267.13;4990163;28;20045;-70
2023/02/27 00:54:37;;;;;;;11.88;2.88;;;-3.20;99.90;;;-5.08;100.00;102272.19;5009103;28;20042;-71
2023/02/27 00:57:02;;;;;;;13.77;3.50;;;-3.20;99.90;;;-5.11;100.00;102270.38;5009899;28;20128;-71
2023/02/27 00:59:28;;;;;;;17.77;2.97;;;-3.20;99.90;;;-5.10;100.00;102266.97;5008158;28;20042;-71
2023/02/27 01:01:54;;;;;;;19.55;3.30;;;-3.30;99.90;;;-5.12;100.00;102271.16;5008680;28;20037;-71
2023/02/27 01:04:20;;;;;;;7.80;2.90;;;-3.30;99.90;;;-5.12;100.00;102262.59;4991474;28;20038;-70
2023/02/27 01:06:46;;;;;;;14.75;3.85;;;-3.20;99.90;;;-5.09;100.00;102267.88;4999564;28;20045;-70
2023/02/27 01:09:12;;;;;;;8.02;2.85;;;-3.20;99.90;;;-5.07;100.00;102259.41;4992594;28;20063;-71
2023/02/27 01:11:38;;;;;;;6.57;3.03;;;-3.20;99.90;;;-5.02;100.00;102260.47;4981903;28;20076;-71
2023/02/27 01:14:04;;;;;;;8.32;3.13;;;-3.10;99.90;;;-4.97;100.00;102268.38;5008728;28;20033;-71
2023/02/27 01:16:30;;;;;;;13.93;3.38;;;-3.10;99.90;;;-4.97;100.00;102270.94;4989666;28;20053;-71
2023/02/27 01:18:56;;;;;;;7.93;2.60;;;-3.10;99.90;;;-4.99;100.00;102259.72;5008496;28;20048;-71
2023/02/27 01:21:23;;;;;;;12.00;3.00;;;-3.10;99.90;;;-5.01;100.00;102264.81;5000136;28;20034;-71
2023/02/27 01:23:49;;;;;;;15.32;3.13;;;-3.20;99.90;;;-5.04;100.00;102263.78;4989626;28;20038;-71
2023/02/27 01:26:15;;;;;;;12.35;3.05;;;-3.20;99.90;;;-5.04;100.00;102259.53;4991202;28;20453;-71
2023/02/27 01:28:41;;;;;;;17.45;3.20;;;-3.20;99.90;;;-5.04;100.00;102259.53;4992896;28;20021;-71
2023/02/27 01:31:08;;;;;;;8.55;3.00;;;-3.20;99.90;;;-5.05;100.00;102262.06;5006903;28;20033;-73
2023/02/27 01:33:34;;;;;;;13.60;3.08;;;-3.20;99.90;;;-5.07;100.00;102256.84;5008046;28;20422;-71
2023/02/27 01:36:00;;;;;;;10.82;2.95;;;-3.20;99.90;;;-5.08;100.00;102270.47;4992487;28;20045;-71
2023/02/27 01:38:26;;;;;;;13.20;3.85;;;-3.20;99.90;;;-5.12;100.00;102260.03;4984768;28;20042;-71
2023/02/27 01:40:52;;;;;;;11.50;2.63;;;-3.30;99.90;;;-5.17;100.00;102263.25;5008911;28;20037;-71
2023/02/27 01:43:20;;;;;;;11.70;3.03;;;-3.30;99.90;;;-5.17;100.00;102263.25;4981826;28;20529;-71
2023/02/27 01:45:48;;;;;;;10.05;3.30;;;-3.30;99.90;;;-5.18;100.00;102258.97;5007126;28;20065;-71
2023/02/27 01:48:30;;;;;;;11.77;2.90;;;-3.30;99.90;;;-5.16;100.00;102265.03;4991337;28;20545;-71
2023/02/27 01:51:19;;;;;;;11.43;2.83;;;-3.30;99.90;;;-5.17;100.00;102264.97;5010907;28;20101;-71
2023/02/27 01:53:51;;;;;;;9.80;3.25;;;-3.30;99.90;;;-5.16;100.00;102269.31;4992127;28;20068;-71
2023/02/27 01:56:25;;;;;;;16.85;3.45;;;-3.30;99.90;;;-5.16;100.00;102272.75;4995120;28;20034;-71
2023/02/27 01:58:57;;;;;;;9.52;2.97;;;-3.30;99.90;;;-5.10;100.00;102276.38;4994724;28;20029;-71
2023/02/27 02:01:24;;;;;;;11.38;3.10;;;-3.20;99.90;;;-5.08;100.00;102282.44;5011082;28;20671;-71
2023/02/27 02:04:35;;;;;;;8.18;2.60;;;-3.20;99.90;;;-5.06;100.00;102289.41;4985435;28;20045;-71
2023/02/27 02:07:10;;;;;;;6.32;3.13;;;-3.20;99.90;;;-5.07;100.00;102285.09;4948363;28;20038;-71
2023/02/27 02:09:51;;;;;;;;;;;-3.20;99.90;;;-5.11;100.00;102287.47;4952356;28;20060;-71
2023/02/27 02:12:21;;;;;;;10.52;2.78;;;-3.20;99.90;;;-5.08;100.00;102283.31;4985345;28;19917;-71
2023/02/27 02:14:47;;;;;;;9.75;3.35;;;-3.20;99.90;;;-5.10;100.00;102287.53;4976312;28;20037;-71
2023/02/27 02:17:53;;;;;;;15.43;3.40;;;-3.20;99.90;;;-5.02;100.00;102282.72;4993828;28;20034;-71
2023/02/27 02:20:54;;;;;;;11.95;3.17;;;-3.20;99.90;;;-5.02;100.00;102283.59;5002334;28;20025;-71
2023/02/27 02:23:44;;;;;;;14.02;2.97;;;-3.10;99.90;;;-4.93;100.00;102283.09;4984607;28;20494;-70
2023/02/27 02:26:18;;;;;;;12.35;3.20;;;-3.10;99.90;;;-4.90;100.00;102277.19;5001285;28;20120;-70
2023/02/27 02:29:30;;;;;;;22.65;3.53;;;-3.00;99.90;;;-4.87;100.00;102273.06;5012003;28;20034;-71
2023/02/27 02:32:30;;;;;;;9.65;2.97;;;-3.00;99.90;;;-4.86;100.00;102274.84;5011688;28;20725;-70
2023/02/27 02:35:32;;;;;;;18.52;3.05;;;-3.00;99.90;;;-4.85;100.00;102274.03;4958432;28;20041;-71
2023/02/27 02:38:19;;;;;;;19.98;3.10;;;-3.00;99.90;;;-4.85;100.00;102266.31;5002591;28;20880;-71
2023/02/27 02:41:23;;;;;;;18.52;3.53;;;-3.00;99.90;;;-4.77;100.00;102272.66;4999311;28;20041;-71
2023/02/27 02:44:01;;;;;;;20.65;3.28;;;-2.90;99.90;;;-4.69;100.00;102269.50;4994726;28;20041;-71
2023/02/27 02:47:07;;;;;;;12.63;3.38;;;-2.80;99.90;;;-4.56;100.00;102269.19;5010989;28;20029;-71
2023/02/27 02:49:49;;;;;;;12.13;3.55;;;-2.70;99.90;;;-4.41;100.00;102269.78;5012748;28;20041;-71
2023/02/27 02:53:00;;;;;;;11.45;3.78;;;-2.60;99.90;;;-4.27;100.00;102279.75;5011554;28;20479;-71
2023/02/27 02:55:49;;;;;;;12.82;3.30;;;-2.50;99.90;;;-4.21;100.00;102287.69;4977663;28;20065;-70
2023/02/27 02:58:36;;;;;;;10.30;3.13;;;-2.50;99.90;;;-4.17;100.00;102290.47;4999340;28;20037;-71
2023/02/27 03:01:20;;;;;;;8.82;2.60;;;-2.40;99.90;;;-4.19;100.00;102296.34;4993806;28;20042;-71
2023/02/27 03:04:23;;;;;;;10.90;3.70;;;-2.40;99.90;;;-4.22;100.00;102293.66;4991539;28;20102;-71
2023/02/27 03:07:33;;;;;;;11.80;3.40;;;-2.40;99.90;;;-4.17;100.00;102289.56;5003325;28;20486;-70
2023/02/27 03:10:37;;;;;;;25.08;4.47;;;-2.30;99.90;;;-4.06;100.00;102290.88;5000631;28;20044;-71
2023/02/27 03:13:19;;;;;;;9.45;2.60;;;-2.20;99.90;;;-3.99;100.00;102300.56;5010390;28;20289;-71
2023/02/27 03:16:09;;;;;;;15.52;3.03;;;-2.20;99.90;;;-3.99;100.00;102298.00;4993832;28;20030;-71
2023/02/27 03:19:01;;;;;;;8.98;2.15;;;-2.30;99.90;;;-4.16;100.00;102302.50;4992382;28;20564;-71
2023/02/27 03:21:40;;;;;;;14.90;3.10;;;-2.40;99.90;;;-4.31;100.00;102296.75;4990626;28;20037;-71
2023/02/27 03:24:11;;;;;;;8.07;3.15;;;-2.40;99.90;;;-4.33;100.00;102299.25;4983856;28;20033;-71
2023/02/27 03:26:43;;;;;;;11.90;3.45;;;-2.50;99.90;;;-4.33;100.00;102294.09;4991620;28;20029;-71
2023/02/27 03:29:13;;;;;;;14.15;3.58;;;-2.50;99.90;;;-4.37;100.00;102297.38;4991380;28;20037;-71
2023/02/27 03:31:40;;;;;;;9.57;2.92;;;-2.50;99.90;;;-4.34;100.00;102310.38;4993910;28;20099;-71
2023/02/27 03:34:37;;;;;;;13.15;2.80;;;-2.50;99.90;;;-4.29;100.00;102307.97;5009609;28;20725;-71
2023/02/27 03:37:13;;;;;;;19.20;3.50;;;-2.50;99.90;;;-4.27;100.00;102318.34;4999578;28;20037;-71
2023/02/27 03:39:47;;;;;;;12.50;3.08;;;-2.50;99.90;;;-4.26;100.00;102314.94;5008866;28;20050;-70
2023/02/27 03:42:46;;;;;;;7.38;2.83;;;-2.40;99.90;;;-4.23;100.00;102325.31;5008462;28;20141;-71
2023/02/27 03:45:20;;;;;;;15.48;3.45;;;-2.40;99.90;;;-4.22;100.00;102327.97;4977176;28;20038;-71
2023/02/27 03:47:46;;;;;;;13.05;3.35;;;-2.40;99.90;;;-4.18;100.00;102329.84;5009457;28;20073;-71
2023/02/27 03:50:12;;;;;;;12.52;3.20;;;-2.40;99.90;;;-4.15;100.00;102329.09;5008637;28;20081;-70
2023/02/27 03:52:39;;;;;;;18.92;3.78;;;-2.40;99.90;;;-4.17;100.00;102329.06;4991522;28;20041;-71
2023/02/27 03:55:15;;;;;;;19.15;3.40;;;-2.40;99.90;;;-4.18;100.00;102334.13;4991558;28;20025;-70
2023/02/27 03:57:43;;;;;;;16.48;3.00;;;-2.40;99.90;;;-4.24;100.00;102333.88;4994445;28;20052;-71
2023/02/27 04:00:15;;;;;;;9.73;3.17;;;-2.50;99.90;;;-4.26;100.00;102341.53;4976201;28;20041;-71
2023/02/27 04:02:44;;;;;;;11.63;3.20;;;-2.40;99.90;;;-4.33;100.00;102340.41;5008953;28;20480;-70
2023/02/27 04:05:10;;;;;;;13.48;3.33;;;-2.50;99.90;;;-4.40;100.00;102332.41;4974907;28;20095;-71
2023/02/27 04:08:16;;;;;;;7.88;3.00;;;-2.60;99.90;;;-4.45;100.00;102345.06;4982217;28;20030;-70
2023/02/27 04:11:33;;;;;;;9.88;3.08;;;-2.60;99.90;;;-4.51;100.00;102347.38;5009477;28;20042;-70
2023/02/27 04:14:20;;;;;;;6.85;2.78;;;-2.70;99.90;;;-4.53;100.00;102356.72;4989818;28;20349;-70
2023/02/27 04:16:57;;;;;;;12.88;3.72;;;-2.70;99.90;;;-4.54;100.00;102358.41;5010448;28;20026;-70
2023/02/27 04:20:02;;;;;;;10.60;3.38;;;-2.70;99.90;;;-4.49;100.00;102363.75;5009209;28;20046;-71
2023/02/27 04:22:57;;;;;;;12.32;3.33;;;-2.70;99.90;;;-4.49;100.00;102356.03;4979775;28;20038;-71
2023/02/27 04:25:57;;;;;;;13.60;3.33;;;-2.70;99.90;;;-4.52;100.00;102361.03;4992937;28;21057;-71
2023/02/27 04:28:45;;;;;;;7.95;2.90;;;-2.70;99.90;;;-4.55;100.00;102360.94;4990123;28;20049;-70
2023/02/27 04:31:27;;;;;;;15.63;3.33;;;-2.70;99.90;;;-4.58;100.00;102359.13;5007192;28;20714;-71
2023/02/27 04:34:35;;;;;;;10.18;3.25;;;-2.40;99.90;;;-4.59;100.00;102361.63;4991820;28;20041;-71
2023/02/27 04:37:21;;;;;;;16.15;3.95;;;-2.70;99.90;;;-4.62;100.00;102370.06;4995100;28;24402;-70
2023/02/27 04:40:05;;;;;;;7.45;2.67;;;-2.80;99.90;;;-4.64;100.00;102368.25;4992164;28;20068;-71
2023/02/27 04:42:37;;;;;;;10.80;2.97;;;-2.80;99.90;;;-4.64;100.00;102370.84;4992873;28;20041;-71
2023/02/27 04:45:09;;;;;;;15.90;3.97;;;-2.80;99.90;;;-4.66;100.00;102369.88;5008405;28;20172;-71
2023/02/27 04:47:48;;;;;;;12.90;3.65;;;-2.80;99.90;;;-4.62;100.00;102376.88;4995304;28;20033;-71
2023/02/27 04:50:33;;;;;;;12.85;3.80;;;-2.80;99.90;;;-4.60;100.00;102378.72;4990623;28;20628;-70
2023/02/27 04:53:10;;;;;;;19.60;3.60;;;-2.80;99.90;;;-4.59;100.00;102374.47;4976425;28;20040;-71
2023/02/27 04:55:46;;;;;;;9.75;3.42;;;-2.80;99.90;;;-4.58;100.00;102376.22;4989650;28;20372;-71
2023/02/27 04:58:20;;;;;;;10.40;3.88;;;-2.70;99.90;;;-4.50;100.00;102377.41;4990972;28;20044;-71
2023/02/27 05:00:55;;;;;;;11.23;3.60;;;-2.70;99.90;;;-4.46;100.00;102381.88;4983524;28;20045;-71
2023/02/27 05:03:27;;;;;;;17.33;4.15;;;-2.70;99.90;;;-4.46;100.00;102387.00;5008912;28;20133;-70
2023/02/27 05:05:59;;;;;;;12.15;3.42;;;-2.60;99.90;;;-4.44;100.00;102385.38;4991888;28;20037;-70
2023/02/27 05:08:45;;;;;;;12.75;3.85;;;-2.60;99.90;;;-4.44;100.00;102384.50;4984535;28;20107;-70
2023/02/27 05:11:23;;;;;;;13.82;3.65;;;-2.60;99.90;;;-4.46;100.00;102388.72;4986398;28;20124;-71
2023/02/27 05:14:01;;;;;;;22.77;3.70;;;-2.70;99.90;;;-4.51;100.00;102380.81;4991844;28;20029;-71
2023/02/27 05:17:25;;;;;;;13.70;3.63;;;-2.70;99.90;;;-4.55;100.00;102381.50;5006118;28;20049;-71
2023/02/27 05:19:51;;;;;;;10.13;3.50;;;-2.70;99.90;;;-4.61;100.00;102387.25;4953993;28;20073;-70
2023/02/27 05:22:46;;;;;;;12.45;3.22;;;-2.80;99.90;;;-4.66;100.00;102385.31;4992527;28;20109;-70
2023/02/27 05:25:32;;;;;;;12.68;3.70;;;-2.80;99.90;;;-4.76;100.00;102377.19;4995081;28;20044;-70
2023/02/27 05:28:10;;;;;;;15.98;4.60;;;-2.90;99.90;;;-4.87;100.00;102382.69;5012528;28;20091;-71
2023/02/27 05:31:14;;;;;;;23.38;7.47;;;-3.00;99.90;;;-4.97;100.00;102381.41;4985164;28;20133;-71
2023/02/27 05:33:55;;;;;;;23.02;8.20;;;-3.00;99.90;;;-4.96;100.00;102385.75;5011634;28;20033;-70
2023/02/27 05:36:35;;;;;;;25.95;9.48;;;-3.00;99.90;;;-4.96;100.00;102385.75;4994875;28;20041;-71
2023/02/27 05:39:07;;;;;;;26.10;9.63;;;-3.10;99.90;;;-4.99;100.00;102394.22;5004349;28;20034;-71
2023/02/27 05:41:39;;;;;;;31.55;9.77;;;-3.10;99.90;;;-5.00;100.00;102405.28;4994780;28;20487;-71
2023/02/27 05:44:26;;;;;;;34.33;10.07;;;-3.10;99.90;;;-4.99;100.00;102407.06;5009739;28;20051;-70
2023/02/27 05:46:58;;;;;;;21.02;6.63;;;-3.10;99.90;;;-5.00;100.00;102401.84;5012784;28;20026;-71
2023/02/27 05:49:52;;;;;;;19.88;6.68;;;-3.10;99.90;;;-4.95;100.00;102408.94;4984195;28;20460;-71
2023/02/27 05:52:23;;;;;;;19.67;6.85;;;-3.10;99.90;;;-4.90;100.00;102409.16;5011153;28;20025;-71
2023/02/27 05:55:03;;;;;;;18.90;6.40;;;-3.00;99.90;;;-4.85;100.00;102415.34;5011029;28;20045;-71
2023/02/27 05:57:47;;;;;;;16.70;5.63;;;-3.00;99.90;;;-4.79;100.00;102415.63;5009106;28;20080;-71
2023/02/27 06:00:33;;;;;;;21.48;5.25;;;-3.00;99.90;;;-4.72;100.00;102421.03;5009824;28;20034;-70
2023/02/27 06:02:59;;;;;;;14.55;4.57;;;-2.90;99.90;;;-4.66;100.00;102421.31;5009170;28;20041;-71
2023/02/27 06:05:27;;;;;;;18.38;4.60;;;-2.80;99.90;;;-4.54;100.00;102435.53;4993977;28;20064;-71
2023/02/27 06:07:53;;;;;;;15.43;3.55;;;;;;;-4.34;100.00;102436.41;4995977;28;20383;-70
2023/02/27 06:10:20;;;;;;;8.32;3.17;;;-2.50;99.90;;;-4.16;100.00;102443.13;4993735;28;20497;-71
2023/02/27 06:12:46;;;;;;;11.10;3.13;;;-2.40;99.90;;;-4.01;100.00;102451.44;5013048;28;20045;-70
2023/02/27 06:15:12;;;;;;;9.50;3.15;;;-2.20;99.90;;;-3.85;100.00;102449.50;5012693;28;20042;-70
2023/02/27 06:17:38;;;;;;;9.73;2.75;;;-2.10;99.90;;;-3.75;100.00;102455.06;4992474;28;20069;-70
2023/02/27 06:20:06;;;;;;;8.00;2.50;;;-2.00;99.90;;;-3.67;100.00;102457.06;5001595;28;20608;-70
2023/02/27 06:22:33;;;;;;;9.82;3.10;;;-1.90;99.90;;;-3.61;100.00;102462.47;4974442;28;20056;-70
2023/02/27 06:24:59;;;;;;;12.07;2.35;;;-1.80;99.90;;;-3.58;100.00;102463.47;4986474;28;20096;-71
2023/02/27 06:27:25;;;;;;;13.65;2.65;;;-1.80;99.90;;;-3.53;100.00;102456.78;5012655;28;20136;-70
2023/02/27 06:29:53;;;;;;;12.73;2.75;;;-1.70;99.90;;;-3.42;100.00;102469.22;4993681;28;20037;-70
2023/02/27 06:32:22;;;;;;;10.57;2.58;;;-1.70;99.90;;;-3.31;100.00;102460.19;5010152;28;20033;-71
2023/02/27 06:34:48;;;;;;;10.15;2.65;;;-1.70;99.90;;;-3.03;100.00;102459.53;4994978;28;21079;-71
2023/02/27 06:37:14;;;;;;;9.75;2.60;;;-1.70;99.90;;;-3.10;100.00;102463.59;4991623;28;20088;-70
2023/02/27 06:39:40;;;;;;;7.68;2.60;;;-1.60;99.90;;;-3.03;100.00;102464.69;4995583;28;20377;-70
2023/02/27 06:42:06;;;;;;;8.38;2.65;;;-1.50;99.90;;;-2.49;100.00;102480.38;4992146;28;20052;-70
2023/02/27 06:44:31;;;;;;;10.77;2.63;;;-1.40;99.90;;;-2.25;100.00;102479.47;5003390;28;20137;-71
2023/02/27 06:46:57;;;;;;;11.05;3.00;;;-1.20;99.90;;;-1.80;100.00;102488.72;5000478;28;20046;-71
2023/02/27 06:49:23;;;;;;;11.82;2.50;;;-1.00;99.90;;;-0.15;100.00;102496.97;5011121;28;20056;-70
2023/02/27 06:51:49;;;;;;;8.73;2.53;;;-0.50;99.90;;;1.19;100.00;102506.16;5002495;28;20041;-71
2023/02/27 06:54:15;;;;;;;8.98;2.40;;;0.20;99.90;;;4.70;91.48;102517.81;4985072;28;20037;-71
2023/02/27 06:56:41;;;;;;;7.18;1.98;;;1.30;99.90;;;7.68;75.66;102524.06;4991829;28;20068;-70
2023/02/27 06:59:06;;;;;;;8.00;2.17;;;2.60;99.90;;;9.81;64.49;102527.16;4994764;28;20053;-70
2023/02/27 07:01:32;;;;;;;5.25;2.20;;;4.10;99.90;;;12.22;59.37;102552.41;5000876;28;20030;-71
2023/02/27 07:03:59;;;;;;;11.30;1.80;;;5.80;99.90;;;14.15;54.27;102576.09;5009618;28;20454;-71
2023/02/27 07:06:26;;;;;;;4.40;1.50;;;7.40;99.90;;;15.50;49.04;102588.25;5009007;28;20030;-71
2023/02/27 07:08:52;;;;;;;5.00;1.50;;;8.90;99.90;;;16.87;46.78;102612.00;5010619;28;21051;-71
2023/02/27 07:11:18;;;;;;;5.10;1.48;;;10.20;99.90;;;17.87;44.47;102624.38;5010518;28;20034;-71
2023/02/27 07:13:43;;;;;;;4.88;1.40;;;11.20;99.90;;;18.04;42.42;102635.13;4991481;28;20042;-71
2023/02/27 07:16:09;;;;;;;4.60;1.50;;;11.80;99.90;;;17.34;42.48;102633.91;4993297;28;20068;-71
2023/02/27 07:18:35;;;;;;;5.22;1.60;;;12.10;99.90;;;17.07;42.57;102637.78;5002505;28;20391;-71
2023/02/27 07:21:01;;;;;;;5.57;1.70;;;12.20;99.90;;;16.78;42.62;102650.47;4986072;28;20109;-71
2023/02/27 07:23:27;;;;;;;5.75;1.60;;;12.20;99.90;;;16.32;43.33;102645.28;4992411;28;20030;-71
2023/02/27 07:25:52;;;;;;;4.47;1.45;;;12.40;99.90;;;16.38;43.03;102652.16;5012000;28;20030;-71
2023/02/27 07:28:18;;;;;;;6.35;1.60;;;12.50;99.90;;;16.08;43.14;102652.44;5008034;28;21036;-71
2023/02/27 07:30:45;;;;;;;6.13;1.63;;;12.40;99.90;;;15.68;43.59;102648.63;4990245;28;20037;-71
2023/02/27 07:33:11;;;;;;;4.35;1.27;;;12.30;99.90;;;15.11;44.25;102648.03;5012004;28;20136;-71
2023/02/27 07:35:37;;;;;;;5.53;1.35;;;12.40;99.90;;;15.23;44.65;102649.38;4993953;28;21478;-71
2023/02/27 07:38:03;;;;;;;5.32;1.50;;;12.70;99.90;;;16.17;43.73;102670.66;5010122;28;20053;-71
2023/02/27 07:40:29;;;;;;;7.32;1.50;;;13.50;99.90;;;17.33;42.55;102693.41;4977214;28;20029;-71
2023/02/27 07:42:55;;;;;;;5.00;1.50;;;14.20;99.90;;;17.81;41.34;102696.59;4960725;28;20080;-71
2023/02/27 07:45:21;;;;;;;5.05;1.23;;;14.60;99.90;;;17.71;41.05;102698.81;5009936;28;20029;-71
2023/02/27 07:47:48;;;;;;;3.83;1.30;;;14.60;99.20;;;16.53;42.62;102685.22;4993281;28;20054;-71
2023/02/27 07:50:14;;;;;;;4.35;1.20;;;14.40;98.90;;;15.52;43.71;102676.66;5008188;28;20037;-71
2023/02/27 07:52:42;;;;;;;4.20;1.20;;;14.10;99.10;;;14.92;44.85;102662.84;4988371;28;20057;-71
2023/02/27 07:55:10;;;;;;;2.88;1.13;;;14.10;99.90;;;15.02;45.67;102666.06;5008191;28;20505;-71
2023/02/27 07:57:36;;;;;;;6.47;1.40;;;14.10;99.80;;;14.60;45.99;102663.91;4991100;28;20041;-72
2023/02/27 08:00:05;;;;;;;3.25;1.20;;;14.20;99.90;;;14.73;46.07;102663.47;4983355;28;20038;-71
2023/02/27 08:02:32;;;;;;;3.42;1.50;;;14.50;99.80;;;15.20;45.67;102676.03;5006259;28;20049;-71
2023/02/27 08:04:58;;;;;;;5.32;1.50;;;14.60;99.10;;;14.52;46.36;102666.81;5002564;28;20104;-71
2023/02/27 08:07:24;;;;;;;9.32;1.63;;;14.90;99.90;;;15.21;46.38;102666.28;4984140;28;20030;-71
2023/02/27 08:09:50;;;;;;;4.03;1.58;;;15.10;98.90;;;15.14;45.93;102674.47;4992801;28;20036;-71
2023/02/27 08:12:16;;;;;;;4.15;1.58;;;15.60;99.30;;;15.93;45.34;102676.94;4981544;28;20049;-71
2023/02/27 08:14:42;;;;;;;4.72;1.52;;;15.90;98.80;;;15.94;45.40;102682.22;4991558;28;21697;-71
2023/02/27 08:17:08;;;;;;;3.30;1.25;;;16.00;98.50;;;15.65;46.06;102682.41;5010502;28;20462;-71
2023/02/27 08:19:34;;;;;;;2.63;1.10;;;16.30;98.00;;;15.97;45.30;102691.84;4988922;28;20040;-71
2023/02/27 08:22:00;;;;;;;2.75;1.33;;;16.30;97.70;;;15.61;45.82;102702.88;5010001;28;20510;-71
2023/02/27 08:24:26;;;;;;;4.90;1.45;;;16.60;97.60;;;15.92;45.38;102704.44;4993382;28;20033;-71
2023/02/27 08:26:52;;;;;;;3.92;1.35;;;15.90;97.40;;;13.91;48.33;102681.03;4990649;28;20030;-71
2023/02/27 08:29:18;;;;;;;3.92;1.38;;;15.50;97.30;;;13.13;49.08;102680.50;5005471;28;20048;-71
2023/02/27 08:31:43;;;;;;;3.10;1.15;;;15.30;98.30;;;13.45;50.02;102679.66;4983412;28;20030;-71
2023/02/27 08:34:09;;;;;;;3.50;1.40;;;15.40;98.70;;;14.00;49.10;102685.19;5009607;28;20045;-71
2023/02/27 08:36:35;;;;;;;6.53;1.98;;;15.40;98.90;;;13.97;49.70;102679.97;4994391;28;20021;-71
2023/02/27 08:39:01;;;;;;;5.25;1.65;;;15.70;98.60;;;14.48;48.64;102689.88;5009954;28;20048;-71
2023/02/27 08:41:27;;;;;;;6.55;1.63;;;15.90;98.80;;;14.58;48.41;102693.16;4985518;28;20510;-71
2023/02/27 08:43:53;;;;;;;7.32;1.90;;;16.00;98.20;;;14.72;47.90;102693.53;5008345;28;20107;-71
2023/02/27 08:46:19;;;;;;;5.97;1.35;;;16.20;98.00;;;14.75;47.69;102695.22;5009725;28;20036;-71
2023/02/27 08:48:45;;;;;;;1.60;1.00;;;16.10;98.30;;;14.27;48.93;102690.53;4991202;28;20033;-71
2023/02/27 08:51:11;;;;;;;52.20;26.17;;;15.80;98.70;;;14.01;49.61;102684.25;4988066;28;20042;-71
2023/02/27 08:53:36;;;;;;;3.95;1.10;;;15.40;97.50;;;13.31;49.61;102687.13;4994429;28;20704;-71
2023/02/27 08:56:02;;;;;;;3.00;1.15;;;15.40;99.90;;;13.55;51.16;102680.31;5014616;28;20511;-71
2023/02/27 08:58:29;;;;;;;3.80;1.30;;;15.40;99.30;;;13.64;50.61;102677.38;5008274;28;20038;-71
2023/02/27 09:00:55;;;;;;;5.05;1.38;;;15.30;99.20;;;13.44;50.40;102670.00;4995905;28;20048;-71
2023/02/27 09:03:21;;;;;;;2.65;1.30;;;15.10;99.80;;;13.37;51.09;102673.75;4988463;28;20037;-71
2023/02/27 09:05:48;;;;;;;3.80;1.13;;;15.10;99.90;;;13.40;51.12;102673.66;4976509;28;20037;-71
2023/02/27 09:08:15;;;;;;;4.97;1.10;;;15.00;99.60;;;13.20;51.10;102671.53;4987927;28;20458;-71
2023/02/27 09:10:41;;;;;;;53.35;7.15;;;14.40;99.30;;;12.05;52.40;102661.97;5008974;28;20088;-71
2023/02/27 09:13:07;;;;;;;2.67;0.93;;;14.00;99.90;;;11.80;53.93;102652.81;5011210;28;20037;-71
2023/02/27 09:15:36;;;;;;;8.75;1.33;;;13.40;99.90;;;11.18;53.97;102655.78;4992434;28;20080;-73
2023/02/27 09:18:05;;;;;;;5.28;1.58;;;13.10;99.90;;;11.17;54.83;102660.19;4998568;28;20057;-73
2023/02/27 09:20:40;;;;;;;6.43;1.58;;;13.00;99.90;;;11.45;53.61;102668.44;4994573;28;20145;-73
2023/02/27 09:23:06;;;;;;;3.10;1.10;;;13.00;99.90;;;11.70;54.82;102666.19;4990569;28;20036;-74
2023/02/27 09:25:33;;;;;;;7.03;1.42;;;13.00;99.90;;;11.79;53.59;102674.81;4995262;28;20033;-75
2023/02/27 09:28:01;;;;;;;4.20;1.60;;;12.90;99.90;;;11.66;54.58;102669.78;4965445;28;20045;-76
2023/02/27 09:30:28;;;;;;;5.38;1.27;;;12.50;99.90;;;10.94;54.24;102664.97;4993877;28;20032;-76
2023/02/27 09:32:53;;;;;;;4.28;1.67;;;12.20;99.90;;;10.85;54.83;102663.38;4992255;28;20592;-75
2023/02/27 09:35:20;;;;;;;3.60;1.27;;;11.50;99.90;;;9.56;55.99;102644.13;4995127;28;20124;-75
2023/02/27 09:37:51;;;;;;;4.15;1.23;;;10.90;99.90;;;9.13;56.74;102642.81;4990366;28;20034;-76
2023/02/27 09:40:36;;;;;;;5.25;1.60;;;10.30;99.90;;;8.61;58.71;102648.53;4974477;28;20056;-76
2023/02/27 09:43:15;;;;;;;2.90;1.00;;;9.80;99.90;;;8.67;60.00;102651.13;4982776;28;20577;-76
2023/02/27 09:45:45;;;;;;;4.30;1.10;;;9.30;99.90;;;7.78;59.41;102642.00;5000439;28;20091;-76
2023/02/27 09:48:44;;;;;;;3.25;0.90;;;8.90;99.90;;;7.24;61.00;102638.69;4993010;28;20529;-76
2023/02/27 09:51:13;;;;;;;3.13;0.77;;;8.60;99.90;;;6.96;62.53;102638.72;4987639;28;20402;-76
2023/02/27 09:53:45;;;;;;;3.83;1.05;;;8.40;99.90;;;6.86;62.62;102642.22;5012972;28;20037;-76
2023/02/27 09:56:52;;;;;;;4.38;0.95;;;8.30;99.90;;;6.76;62.77;102643.97;4984302;28;20568;-76
2023/02/27 09:59:56;;;;;;;5.95;0.88;;;8.00;99.90;;;6.50;63.49;102643.06;4984303;28;20049;-77
2023/02/27 10:03:13;;;;;;;2.45;0.82;;;7.80;99.90;;;6.25;63.10;102652.66;4979620;28;20034;-76
2023/02/27 10:06:06;;;;;;;2.40;0.75;;;7.70;99.90;;;6.33;64.21;102649.19;5011903;28;20124;-76
2023/02/27 10:08:53;;;;;;;2.45;0.90;;;7.80;99.90;;;6.49;65.22;102651.81;5012648;28;20034;-76
2023/02/27 10:11:48;;;;;;;4.00;0.80;;;7.60;99.90;;;6.26;64.59;102655.25;4989638;28;20049;-76
2023/02/27 10:14:39;;;;;;;3.60;0.85;;;7.50;99.90;;;6.11;64.33;102660.44;4988040;28;20034;-76
2023/02/27 10:17:35;;;;;;;3.33;0.80;;;7.30;99.90;;;5.77;64.59;102660.31;4998469;28;20041;-76
2023/02/27 10:20:36;;;;;;;3.63;0.75;;;7.10;99.90;;;5.60;65.33;102651.53;5006904;28;20033;-77
2023/02/27 10:23:17;;;;;;;3.75;0.90;;;7.10;99.90;;;5.79;66.49;102661.19;5010815;28;20129;-77
2023/02/27 10:25:48;;;;;;;2.50;0.80;;;7.20;99.90;;;6.02;66.82;102665.66;4998884;28;20035;-76
2023/02/27 10:28:21;;;;;;;1.73;0.40;;;7.20;99.90;;;5.84;66.55;102669.91;4972691;28;20630;-77
2023/02/27 10:30:55;;;;;;;4.55;0.82;;;7.20;99.90;;;5.82;65.60;102673.41;4997816;28;20498;-77
2023/02/27 10:33:34;;;;;;;1.95;0.70;;;7.40;99.90;;;6.10;64.30;102674.41;5001531;28;20065;-77
2023/02/27 10:36:01;;;;;;;1.85;0.77;;;7.60;99.90;;;6.57;63.00;102686.72;4995345;28;20184;-78
2023/02/27 10:38:36;;;;;;;3.90;0.68;;;7.70;99.90;;;6.33;62.50;102680.56;5005538;28;20037;-77